events-overview

Kinetic Sprint

 

Overall Men

Lake Anna State Park - Spotsylvania, VA 5/10/2009 10:00AM

** Results are for the private use of participants and are the Intellectual Property of Set Up Events. Unauthorized use of these results is prohibited.

Place Bib Co S Age NAME CITY/STATE DQ DQ Rank SWIM Rank T1 Rank BIKE Rank T2 Rank RUN PENALTY TIME DQ
1306 M32OTHO KELLERBALTIMORE MD 200:08:23200:01:15800:44:521000:00:46600:18:50 01:14:05 
2127 M34BRADY DEHOUSTOAK HILL VA 1900:10:131400:01:33400:44:26300:00:35300:17:49 01:14:35 
3541 M25DAVE SMITHVIRGINIA BEACH VA 1100:09:53100:01:09600:44:411900:00:49400:18:17 01:14:48 
4211 M29BRIAN GERAGHTYQUANTICO VA 1500:10:00600:01:241400:46:31400:00:39100:17:15 01:15:47 
5441 M38JAY PELUSORICHMOND VA 300:08:281200:01:30900:45:16500:00:395300:21:39 01:17:31 
615 M38KRISTOPHER AUERBALTIMORE MD 14700:12:595000:01:56100:42:334100:00:571200:19:34 01:17:58 
7167 M38FRANCOIS FABIATOGLEN ALLEN VA 11700:12:225200:01:58300:42:555700:01:001900:19:58 01:18:11 
8160 M20TOM EICKELBERGLEONIA NJ 400:08:38300:01:164200:48:39200:00:34700:19:12 01:18:16 
966 M54MICHAEL BUONAUGURIOFALLS CHURCH VA 3200:10:41500:01:23500:44:40700:00:453100:20:52 01:18:19 
10368 M32MICHAEL MCFERRONSTAFFORD VA 800:09:12700:01:242700:47:21600:00:402300:20:07 01:18:43 
11370 M28RYAN MCGRATHBALTIMORE MD 4200:11:003300:01:451000:45:4515900:01:251000:19:23 01:19:16 
12361 M42RAYMOND MATTHEWSARLINGTON VA 1600:10:063200:01:451600:46:343500:00:562100:20:01 01:19:20 
13494 M23CALEB ROESLERNEW LISBON WI 7500:11:483700:01:482800:47:271300:00:48200:17:34 01:19:24 
14115 M26NATHAN CURLLARLINGTON VA 600:09:011700:01:372000:46:554800:00:583800:21:14 01:19:44 
15227 M37KEVIN GREENGAITHERSBURG MD 5500:11:262400:01:40700:44:504900:00:583500:21:00 01:19:52 
1625 M42SCOTT BALDWINRESTON VA 4500:11:02900:01:271300:46:24900:00:462500:20:25 01:20:01 
17355 M27RAY MAKERALEXANDRIA VA 3500:10:484600:01:552900:47:351700:00:49800:19:14 01:20:18 
18195 M22IRA GALLAGHERLEXINGTON VA 8300:11:543600:01:481100:45:467900:01:052600:20:27 01:20:58 
19336 M35DAVID LEEBALTIMORE MD 2900:10:351600:01:341500:46:313600:00:564800:21:28 01:21:02 
20116 M36PHIL CURRANCHARLOTTESVILLE VA 3400:10:451100:01:294100:48:392400:00:521300:19:36 01:21:18 
21408 M27COLT NICHOLSARLINGTON VA 7800:11:512000:01:372300:47:047600:01:041500:19:47 01:21:20 
22129 M28KEN DELRASOALEXANDRIA VA 1400:09:594000:01:533000:47:3812400:01:153600:21:00 01:21:44 
23545 M35BOBBY SMITSPORTSMOUTH VA 2500:10:324700:01:563900:48:3210800:01:121400:19:44 01:21:54 
24344 M39DAVID LITKENHUSFAIRFAX VA 1700:10:072200:01:393500:47:487500:01:045100:21:33 01:22:08 
25445 M40RICK PERRAULTKESWICK VA 8900:11:571300:01:301900:46:553100:00:553700:21:03 01:22:18 
26676 M32JAMES PEARSONFALLS CHURCH VA 6000:11:352500:01:402200:46:56800:00:454700:21:27 01:22:21 
2779 M22ZAC CATESBLACKSBURG VA 13400:12:41800:01:265000:49:211400:00:48500:18:19 01:22:32 
2828 M26DAVID BARAHONARESTON VA 4700:11:041800:01:373200:47:411200:00:476000:22:00 01:23:07 
29347 M32CHRIS LOMBARDIWASHINGTON DC 3300:10:4410700:02:274800:49:164300:00:571700:19:50 01:23:13 
30393 M32ALAN MOSSKING GEORGE VA 1800:10:076000:02:013400:47:4610200:01:117100:22:14 01:23:17 
PlaceBibCoSAgeNAMECITY/STATE DQDQRankSWIMRankT1RankBIKERankT2RankRUNPENALTYTIMEDQ
31433 M22ALEX PAPEWASHINGTON DC 7600:11:493100:01:451700:46:392000:00:507900:22:25 01:23:26 
32524 M35WALTER SHARPLEYROANOKE VA 10900:12:166800:02:051800:46:463200:00:555000:21:33 01:23:34 
33238 M32FABRICE GUILLAUMEASHBURN VA 8800:11:569500:02:214300:48:405600:01:001600:19:48 01:23:43 
34269 M33TIMOTHY HOUGHQUANTICO VA 3600:10:518600:02:163700:48:0011700:01:144500:21:26 01:23:45 
35294 M32JOSH KAHNEYINDIAN HEAD MD 6300:11:375800:02:012100:46:563300:00:568100:22:26 01:23:54 
36419 M25STEPHEN O'KEEFEYORKTOWN VA 7000:11:457800:02:102600:47:171600:00:496200:22:04 01:24:02 
37156NMM27JEREMY EDWARDSFAIRFAX VA 6400:11:388200:02:131200:46:0412900:01:1610900:23:10 01:24:19 
38232 M35MARCUS GRIMESCHARLOTTESVILLE VA 2200:10:245500:01:596200:49:592100:00:514600:21:26 01:24:37 
39102 M49WILLIAM COQUELINANNANDALE VA 13600:12:455100:01:574000:48:388300:01:053000:20:42 01:25:05 
40377 M28NICHOLAS MEYERELKRIDGE MD 1300:09:566400:02:025500:49:416600:01:018300:22:28 01:25:07 
4177 M40PETER CASHIONWASHINGTON DC 9500:12:027600:02:093800:48:206500:01:015800:21:54 01:25:24 
42426 M32DAVID ORTONRESTON VA 700:09:083000:01:454500:49:123800:00:5614500:24:26 01:25:25 
43172 M37MATTHEW FERGUSONWASHINGTON DC 3700:10:532300:01:395600:49:428000:01:057600:22:21 01:25:39 
44603 M47CHIP WARFELELLICOTT CITY MD 5100:11:183400:01:465100:49:241800:00:499500:22:47 01:26:03 
45601 M28DUSTIN WALTERSCHARLOTTESVILLE VA 900:09:3115400:02:526500:50:206900:01:028500:22:28 01:26:11 
46539 M26BRAD SMITHWILLIAMSBURG VA 5800:11:31         01:26:16 
47231 M47STEVE GRIFFITHGLEN ALLEN VA 8000:11:529800:02:226100:49:583400:00:564400:21:24 01:26:30 
48429 M37ROBERT OSTERRIEDSTERLING VA 15500:13:104300:01:545200:49:308900:01:073200:20:53 01:26:31 
49531 M53WRAY SHERMANWAYNESBORO VA 3800:10:556100:02:015700:49:485900:01:009900:22:52 01:26:35 
5090 M46E KEVIN CLARKFREDERICK MD 20800:14:157900:02:103100:47:3924900:02:032700:20:30 01:26:35 
51301 M24DOUGLAS KAUFFMANLANCASTER PA 13800:12:5212200:02:332500:47:1320000:01:397500:22:21 01:26:35 
52221 M27SEAN GORDONWASHINGTON DC 12700:12:3316400:02:556400:50:2010900:01:121800:19:53 01:26:51 
53175 M35BRYSON FILBERTSILVER SPRING MD 3100:10:402900:01:446600:50:2420400:01:417800:22:25 01:26:52 
54416 M40JERRY O'BRIENPOTOMAC FALLS VA 3000:10:391900:01:377300:50:395300:00:5910600:23:04 01:26:56 
55254 M42T. HARRISCHARLOTTESVILLE VA 4400:11:016600:02:034600:49:124400:00:5813200:23:57 01:27:10 
56240 M42CHRIS HAASWILLIAMSBURG VA 10000:12:0914200:02:414700:49:149500:01:096500:22:08 01:27:19 
57248 M37H. RAMI HAMROUNISPOTSYLVANIA VA 17000:13:229200:02:207500:50:5915500:01:24900:19:19 01:27:22 
58400 M50KEN NAILCHARLOTTESVILLE VA 11500:12:216200:02:026800:50:295800:01:005200:21:38 01:27:27 
59598 M33BRENTON WALKERCOLLEGE PARK MD 2300:10:2513100:02:354900:49:1616600:01:2714600:24:27 01:28:09 
60584 M53DAVID TIPLERRESTON VA 2800:10:3414300:02:418300:51:3116400:01:266300:22:04 01:28:14 
6194 M55IAIN CLELLANDBLACKSBURG VA 13100:12:367700:02:094400:48:5712300:01:1512100:23:38 01:28:34 
PlaceBibCoSAgeNAMECITY/STATE DQDQRankSWIMRankT1RankBIKERankT2RankRUNPENALTYTIMEDQ
62134 M17JON DERRICKVIRGINIA BEACH VA 500:08:51400:01:1815200:55:104600:00:587400:22:20 01:28:35 
63455 M23MICHAEL POKORAROCKY MOUNT NC 23400:14:588500:02:153600:47:5514700:01:216600:22:09 01:28:35 
64585 M45GUY TOMBERLINBLUEMONT VA 11600:12:2111100:02:297200:50:374200:00:577700:22:23 01:28:46 
65395 M20DANIEL MULHERNCOLLEGE PARK MD 8100:11:535700:02:0112100:53:462900:00:542400:20:21 01:28:53 
66478 M39DARREN RENTCHWASHINGTON DC 16200:13:168100:02:135900:49:516300:01:019400:22:41 01:29:00 
67249 M25BRENDAN HANRAHANBELTSVILLE MD 8200:11:537300:02:087800:51:096800:01:019700:22:50 01:29:00 
68349 M49WYLIE LOWERYWOODBRIDGE VA 6600:11:406300:02:027100:50:354700:00:5812800:23:49 01:29:02 
69616NMM34ROBERTO WHARTONNORFOLK VA 25300:15:168800:02:172400:47:1210300:01:1110700:23:08 01:29:02 
70546NMM45BRIAN SNYDERHOOPER UT 5900:11:3312800:02:348500:51:405000:00:597300:22:19 01:29:03 
71201 M43KARL GASKINSWOODBRIDGE VA 6800:11:427200:02:087700:51:098400:01:0510400:23:03 01:29:04 
72256 M22JOSEPH HARTORLANDO FL 6500:11:3811800:02:3210100:52:539800:01:104000:21:18 01:29:29 
7363 M36GRANT BROWNCHARLOTTESVILLE VA 4300:11:005400:01:5910400:53:046100:01:019000:22:38 01:29:40 
74568 M35STEPHEN SZTANWOODBRIDGE VA 2700:10:343900:01:5311700:53:409700:01:108600:22:31 01:29:45 
75165MCM53JOHN ERBALEXANDRIA VA 1000:09:5215700:02:536700:50:2513500:01:1817500:25:19 01:29:45 
76205 M34PATRICK GAYSPOTSYLVANIA VA 4800:11:0713700:02:3713300:54:287800:01:042800:20:39 01:29:54 
7720 M27PETER BAILEYARLINGTON VA 6200:11:3616900:02:579400:52:242800:00:546900:22:11 01:30:00 
78109 M44KEVIN CRISLERAMISSVILLE VA 12400:12:304200:01:543300:47:4513900:01:1921300:26:35 01:30:00 
7954 M35JUSTIN BRANSONWASHINGTON DC 25500:15:187400:02:087000:50:358800:01:063400:21:00 01:30:06 
80367 M29COLIN MCDERMOTTARLINGTON VA 4100:10:598300:02:139200:52:115500:00:5912600:23:45 01:30:07 
81628 M33CHAD WOLFALEXANDRIA VA 14800:13:0110300:02:259300:52:209600:01:103900:21:17 01:30:10 
82389 M46RYAN MITCHELLCHEVY CHASE MD 18200:13:398400:02:148100:51:268200:01:055700:21:52 01:30:14 
83265 M33ERIK HOFFLANDWASHINGTON DC 20100:14:0713400:02:366300:50:197000:01:028200:22:27 01:30:30 
84458 M39CHUCK POTTERCAMBRIDGE MD 16400:13:197500:02:085400:49:323700:00:5615700:24:46 01:30:40 
85298CM36VEDAT KAPLANFREDERICK MD 10800:12:152600:01:408200:51:275400:00:5914300:24:21 01:30:41 
8651CM29KEVIN BOYLEASHBURN VA 10500:12:138700:02:167900:51:119100:01:0913100:23:57 01:30:44 
87342 M35BURKE LEWISRICHMOND VA 10600:12:1316600:02:5611200:53:2310600:01:114100:21:18 01:30:59 
88364 M41ANDREW MCCABEASHBURN VA 14000:12:5422700:03:328600:51:5125700:02:092900:20:41 01:31:05 
8975CM38MATT CARRGLEN ALLEN VA 16000:13:159000:02:186000:49:532300:00:5216300:24:51 01:31:08 
90639 M40MARK YURISHSTAUNTON VA 19800:14:0611400:02:3111500:53:238600:01:062200:20:06 01:31:09 
91327 M34JONAS LARANCERICHMOND VA 17900:13:3515000:02:477600:51:0520200:01:406700:22:11 01:31:15 
9271 M35DAVID CALLAWAY JRSTAFFORD VA 9300:11:599900:02:2311900:53:427200:01:027200:22:19 01:31:24 
PlaceBibCoSAgeNAMECITY/STATE DQDQRankSWIMRankT1RankBIKERankT2RankRUNPENALTYTIMEDQ
9341 M48WILLIAM BEYERRESTON VA 6900:11:4212500:02:335300:49:3218000:01:3219800:26:09 01:31:26 
94113 M34DAVID CRUMFAIRFAX VA 2400:10:321500:01:3414500:55:021100:00:4712400:23:41 01:31:34 
95641 M44DAVID ZEMOCULPEPER VA 5300:11:234900:01:569500:52:247700:01:0416200:24:51 01:31:36 
96166 M41TODD EVELANDSMITHFIELD VA 11800:12:2414400:02:4111000:53:2111100:01:135900:21:59 01:31:37 
97111 M35DAVID CROSBYFALLS CHURCH VA 15200:13:048000:02:119100:52:056700:01:0111500:23:33 01:31:53 
9811 M43DANIEL ANDERSONROCKVILLE MD 12300:12:2925700:03:5010500:53:099400:01:094200:21:20 01:31:54 
99286 M25MATTHEW JAMESBLACKSBURG VA 7100:11:464400:01:5414200:54:534000:00:578400:22:28 01:31:55 
100193 M43JOSH FUTTERMANARLINGTON VA 26700:15:467000:02:055800:49:5113200:01:1710300:23:02 01:31:59 
1014 M21MATTHEW ADAMSCOLLEGE PARK MD 8400:11:5418200:03:0410300:52:571500:00:4811300:23:26 01:32:07 
102582 M40TERRY THORNTONGLEN ALLEN VA 14400:12:574800:01:569800:52:495200:00:5911800:23:36 01:32:15 
103353MCM48JOHN LYSHERFREDERICKSBURG VA 4600:11:0218700:03:078800:52:01100:00:0020900:26:30 01:32:38 
104217 M45HUGO GONZALEZST. LEONARD MD 13900:12:5413800:02:387400:50:5412800:01:1617400:25:16 01:32:55 
105600 M44DAN WALLACEALEXANDRIA VA 18800:13:5118000:03:0316400:55:486200:01:011100:19:26 01:33:06 
106346MCM49RICHARD LOCKLEYWASHINGTON DC 22700:14:4620700:03:196900:50:3123600:01:5110200:22:59 01:33:25 
107549 M29DAVID SOLOMONWASHINGTON DC 16500:13:2025200:03:489600:52:3318900:01:357000:22:12 01:33:27 
108469 M37MATTHEW QUICKHERNDON VA 11100:12:184500:01:5511800:53:412600:00:5215800:24:47 01:33:31 
109571 M34JON TAILLONARLINGTON VA 15000:13:029400:02:208700:51:5212600:01:1616800:25:04 01:33:33 
110107 M38GREG CRABBBROADLANDS VA 10700:12:1424800:03:4513400:54:2916000:01:255600:21:52 01:33:43 
111558 M39DAMON STEELECLARKSBURG MD 6100:11:3611000:02:298000:51:226400:01:0122900:27:28 01:33:54 
112452 M33JUSTIN PIERCEWOODBRIDGE VA 23300:14:5419100:03:089700:52:4510100:01:106100:22:03 01:33:59 
113673 M22STEPHEN CASSIDYWASHINGTON DC 21400:14:2114500:02:4217200:56:103000:00:552000:20:01 01:34:07 
114516CM38BRUCE SCHUETTEVIRGINIA BEACH VA 13500:12:4418900:03:0811100:53:226000:01:0013400:24:02 01:34:14 
115517 M47IRA SCHULMANCHARLOTTESVILLE VA 18900:13:5213500:02:3610200:52:55     01:34:21 
1169 M44BRUCE ALLENTUCKNORTH POTOMAC MD 12900:12:346500:02:0313600:54:3514100:01:1913300:24:00 01:34:28 
117150 M56DANIEL DUVALMCLEAN VA 16600:13:2010400:02:259000:52:0213000:01:1617900:25:34 01:34:36 
118668 M39CHAD MOLTERVIENNA VA 5700:11:2916800:02:5715400:55:1521100:01:4411100:23:19 01:34:42 
119615 M61MICHAEL WESBECHEROAKTON VA 13300:12:3811300:02:3016200:55:3214200:01:2010100:22:56 01:34:54 
120396 M43BRIAN MUMAWSANDY HOOK VA 21000:14:1612000:02:3210900:53:1813300:01:1712700:23:48 01:35:09 
121575 M47JOHN TAYLORWOODBRIDGE VA 18100:13:3816200:02:5411600:53:2518700:01:3512200:23:40 01:35:09 
122432 M46KEN PAKULAALEXANDRIA VA 12600:12:312800:01:4112300:53:5416300:01:2618800:25:52 01:35:22 
123567 M47JOHN SZCZYGIELARLINGTON VA 19000:13:5414900:02:478900:52:0110000:01:1018200:25:41 01:35:32 
PlaceBibCoSAgeNAMECITY/STATE DQDQRankSWIMRankT1RankBIKERankT2RankRUNPENALTYTIMEDQ
12423 M37PAUL BAKERFALLS CHURCH VA 10300:12:1220800:03:1913900:54:4230000:03:068000:22:26 01:35:42 
125631 M38ROB WRIGHTGLEN ALLEN VA 11400:12:2012700:02:3412700:54:1314900:01:2217600:25:21 01:35:48 
126157 M28BEN EGANERLANGER KY 21600:14:2718500:03:0710600:53:107300:01:0313500:24:04 01:35:49 
12776 M34RENE CARVAJALALEXANDRIA VA 23000:14:511000:01:2915000:55:0510700:01:1211000:23:15 01:35:49 
12813 M36WAYNE ARMITAGE JRREMINGTON VA 12100:12:2720600:03:1717300:56:1825500:02:085400:21:43 01:35:51 
129386 M40MICHAEL MILNERMANASSAS VA 30700:17:1419400:03:098400:51:3711500:01:139300:22:41 01:35:52 
130624 M28MATTHEW WILLIAMSFALLS CHURCH VA 9200:11:599600:02:2110800:53:1610500:01:1122000:27:07 01:35:52 
131125 M52RAYMOND DEATHERAGESTAFFORD VA 14100:12:5419300:03:0812000:53:4421500:01:4614700:24:29 01:35:59 
132525 M34CHARLES SHEDRICKARLINGTON VA 18700:13:5016500:02:5511400:53:239000:01:0715900:24:48 01:36:02 
133299 M38DAVID KARASIKROCKVILLE MD 18000:13:3815200:02:5012800:54:1415600:01:2413600:24:05 01:36:09 
134356 M34PETER MANTERNACHBRISTOW VA 14500:12:5716700:02:5614700:55:0419000:01:3512900:23:49 01:36:20 
13545 M33JASON BOCKMANASSAS VA 25700:15:1914600:02:4416100:55:317400:01:035500:21:47 01:36:22 
136528 M39DAN SHENK-EVANSCHEVERLY MD 11200:12:1915500:02:5214900:55:0516200:01:2516000:24:50 01:36:29 
137184 M49PETER FOLGEROAKTON VA 11900:12:2417000:02:5713700:54:3714500:01:2117200:25:13 01:36:30 
13853 M57STEVE BRADLEYPURCELLVILLE VA 15800:13:128900:02:1815800:55:1712100:01:1514900:24:30 01:36:30 
139636 M39CHRIS YOUNGFREDERICKSBURG VA 27500:16:132100:01:3812200:53:5115800:01:254900:21:3100:02:0001:36:35 
140225 M37ERIC GREENWASHINGTON DC 25100:15:1314800:02:4613500:54:3118800:01:358800:22:33 01:36:35 
141556NMM36ERIK STAUBMORRISVILLE NC 24400:15:0511600:02:3113000:54:17     01:36:45 
142523 M35MATTHEW SEILERARLINGTON VA 10100:12:1010900:02:2914300:54:5323000:01:4918000:25:36 01:36:55 
143343 M39GORDON LEWISNEWPORT NEWS VA 26800:15:5015100:02:5013200:54:2711200:01:139600:22:50 01:37:07 
144406NMM28TIM NEUNFAIRFAX VA 9000:11:5718400:03:0617700:56:3215700:01:2513800:24:12 01:37:10 
145499NMM35RAYMOND ROPELEWSKICHARLES TOWN WV 12200:12:2828600:04:2117100:56:0420700:01:429100:22:38 01:37:11 
146151 M23WILLIAM DUVALFALLS CHURCH VA 10400:12:1214100:02:4018000:56:4515200:01:2415000:24:31 01:37:30 
14730 M50TERRY BASHAMDUMFRIES VA 25200:15:1417400:02:5918500:56:5916500:01:264300:21:21 01:37:57 
148536 M41MICHAEL SIMPSONSILVER SPRING MD 22400:14:4114000:02:3912900:54:1522300:01:4815300:24:39 01:38:00 
149119 M26BEHZAD DASTANIBALTIMORE MD 15700:13:1220900:03:2014400:55:0117500:01:3016500:25:01 01:38:03 
15024 M14KEVIN BALDWINRESTON VA 14600:12:586700:02:0519400:57:2516100:01:2514000:24:13 01:38:04 
151489 M42JOHN ROBERTSWOODBRIDGE VA 21200:14:1710500:02:2619100:57:1314300:01:209800:22:51 01:38:05 
152464 M42DAVID PRICEARLINGTON VA 8600:11:5527600:04:1015900:55:2026400:02:1615100:24:32 01:38:10 
153381 M43DAVID MILLERGLEN ALLEN VA 4900:11:0926700:03:5921500:58:4117300:01:2910000:22:55 01:38:11 
154506 M48JOHN SABELHAUSSILVER SPRING MD 5000:11:179700:02:2215700:55:1517000:01:2823700:27:59 01:38:19 
PlaceBibCoSAgeNAMECITY/STATE DQDQRankSWIMRankT1RankBIKERankT2RankRUNPENALTYTIMEDQ
15558 M27ANDREW BRLETICHOAKTON VA 22000:14:3314700:02:4416600:55:5823100:01:4911200:23:24 01:38:26 
156391 M26DENIS MOFFETTBALLSTON LAKE NY 20000:14:0624100:03:4015300:55:1322000:01:4712500:23:43 01:38:29 
157474 M30ROBERT REDFERNALEXANDRIA VA 17100:13:2310600:02:2717900:56:4215400:01:2415500:24:43 01:38:37 
158220 M28SHAUN GOODWINWASHINGTON DC 17700:13:3223200:03:3318100:56:469300:01:0912300:23:40 01:38:39 
159431 M24MICHAEL OWENSWASHINGTON DC 11300:12:194100:01:5316500:55:5817200:01:2922500:27:16 01:38:52 
16098 M59DAVID CONOVERGREAT FALLS VA 16100:13:162700:01:4012500:54:02     01:38:56 
161139 M33DAVE DIXONLOUISA VA 10200:12:1127300:04:0712400:53:5622200:01:4821800:26:56 01:38:56 
162675 M38BERNARDO MARTINEZALEXANDRIA VA 29200:16:4721600:03:2411300:53:2322800:01:4911900:23:37 01:38:57 
163190 M29ETHAN FRIEDWASHINGTON DC 19600:14:0326500:03:5816800:55:5919300:01:3711400:23:32 01:39:08 
164101CM34JON COOPERARLINGTON VA 5200:11:2012300:02:3320500:57:5311400:01:1320000:26:12 01:39:08 
165310 M38EERO KERAVUORIARLINGTON VA 7700:11:505900:02:0118800:57:0921200:01:4420800:26:29 01:39:12 
16699 M38ANTHONY CONSOLDANEALEXANDRIA VA 2100:10:1810200:02:2524001:00:298700:01:0616700:25:02 01:39:19 
16796 M27DAVID CLONDARLINGTON VA 6700:11:4018100:03:0420700:58:1723400:01:5016400:24:54 01:39:44 
168213CM37KEITH GILBREATHCOLUMBIA MD 14300:12:5711700:02:3223401:00:2612000:01:159200:22:40 01:39:47 
169326 M44JOHN LANGFORDMONTCLAIR VA 15100:13:0313900:02:3817400:56:2427900:02:2317700:25:21 01:39:48 
170293 M32PETE JURATOVICALEXANDRIA VA 17400:13:2922400:03:3014100:54:5226500:02:1818300:25:42 01:39:50 
171206 M65DAVID GEARINARLINGTON VA 24600:15:0721300:03:2210000:52:5227600:02:2320100:26:12 01:39:54 
172465CM31KEITH PRUSEKRICHMOND VA 22800:14:4812400:02:3315100:55:0822400:01:4818100:25:41 01:39:55 
173414 M47MARK OAKESHIGHLAND MD 12000:12:25         01:39:58 
174404NMM47FRANK NESBITLA PLATA MD 8500:11:557100:02:0716700:55:5921400:01:4524400:28:15 01:39:58 
175410 M50ED NORLANDERCULPEPER VA 30000:17:0210800:02:2910700:53:1328300:02:3316100:24:51 01:40:06 
176504 M40PAUL RYDERVIENNA VA 26300:15:3819900:03:1114800:55:0426200:02:1613700:24:06 01:40:13 
177475 M46RJ REDSTROMPOWHATAN VA 15600:13:1019600:03:1017600:56:2918500:01:3419200:25:54 01:40:15 
178204 M38BRENT GAUTALEXANDRIA VA 7400:11:4827500:04:0819500:57:2627700:02:2315400:24:41 01:40:24 
17961 M47TODD BROMBERGBETHESDA MD 21500:14:2320000:03:1213100:54:2729000:02:4619000:25:53 01:40:38 
180599 M49FRED WALKERVIRGINIA BEACH VA 28200:16:235600:01:5915500:55:15     01:40:47 
181250 M27DAVE HARDYTAKOMA PARK MD 7300:11:4713200:02:3619200:57:1919500:01:3723300:27:43 01:41:01 
18270 M25DANIEL CALLAWAYQUANTICO VA 29900:16:5919200:03:0820100:57:3614600:01:216400:22:07 01:41:09 
183533 M25STEVE SHOMBERGERARLINGTON VA 2000:10:1711500:02:3121600:58:5010400:01:1124700:28:21 01:41:09 
184451 M40FRANK PICKERINGLOCUST GROVE VA 23900:15:0121900:03:2616000:55:2411900:01:1419700:26:06 01:41:10 
185149 M27DAVID DUNDASBALTIMORE MD 9100:11:5817100:02:5721200:58:2811300:01:1321400:26:36 01:41:11 
PlaceBibCoSAgeNAMECITY/STATE DQDQRankSWIMRankT1RankBIKERankT2RankRUNPENALTYTIMEDQ
186277 M38CHRISTOPHER IAZZETTASTAFFORD VA 16300:13:1820500:03:1716300:55:4820100:01:4022300:27:10 01:41:11 
18795 M28MATTHEW CLINEBELLARLINGTON VA 20400:14:1121800:03:2419900:57:338100:01:0517000:25:07 01:41:19 
188110 M52TROY CRITESGAITHERSBURG MD 23700:15:0022200:03:2912600:54:06     01:41:40 
189473 M45MARK RAIFORDAMISSVILLE VA 7900:11:513500:01:4822200:59:23     01:41:43 
190442NMM29MATTHEW PEPPEROAKTON VA 12800:12:333800:01:4922000:59:109200:01:0922600:27:16 01:41:56 
191401 M31TETSUAKI NAKANOCOLLEGE PARK MD 17200:13:2429200:04:2416900:55:5915300:01:2416600:25:0200:02:0001:42:11 
19297CM38MICHAEL COLEALEXANDRIA VA 21100:14:1620200:03:1319700:57:2820300:01:4018500:25:47 01:42:22 
193210 M25MIKE GEORGEFAIRFAX VA 8700:11:5615300:02:5128501:04:4025100:02:083300:20:56 01:42:29 
194573 M55MASAKI TAKAHASHIMCLEAN VA 26100:15:299300:02:2015600:55:1518600:01:3423500:27:54 01:42:30 
195215 M42DAVID GOGOLKIEWICZMANASSAS VA 11000:12:1822800:03:3221400:58:3624300:01:5420300:26:17 01:42:35 
196446NMM30ANTHONY PERRYWASHINGTON DC 27400:16:1229500:04:2417500:56:2712200:01:1514200:24:20 01:42:37 
197359 M40JAMES MARTINWASHINGTON DC 7200:11:4628400:04:1720400:57:5126100:02:1321100:26:34 01:42:40 
198148 M50ERIC DUNCANCLIFTON VA 21900:14:3025800:03:5020000:57:352700:00:5219300:25:56 01:42:42 
199112 M58PAUL CROWTHERPALMYRA VA 18600:13:4729100:04:2421000:58:2315100:01:2316900:25:06 01:43:01 
200457 M46JON POSTHAYMARKET VA 16700:13:2123900:03:3919600:57:2721900:01:4721600:26:52 01:43:05 
201566 M37PATRICK SUPERALESFT BELVOIR VA 28700:16:3520100:03:1214000:54:48     01:43:17 
202403 M31JASON NAVONRESTON VA 15400:13:1025300:03:4818200:56:5126700:02:1922400:27:11 01:43:18 
203200NMM21GRAHAM GARVIEROCKVILLE MD 19900:14:0624200:03:4125201:01:51     01:43:28 
204500 M51MATTHEW ROSWURMHERNDON VA 21800:14:3015600:02:529900:52:51     01:43:28 
205245 M46ROBERT HALLYFAIRFAX STATION VA 22300:14:3923800:03:3918700:57:0321700:01:4620500:26:22 01:43:28 
206196 M30PABLO GAMEZVIENNA VA 16800:13:2112900:02:3518400:56:5618100:01:3226200:29:15 01:43:37 
207384 M28MATTHEW MILLERARLINGTON VA 1200:09:5411200:02:3026401:03:013900:00:5722700:27:21 01:43:41 
208593 M51CARLOS VEGHBETHESDA MD 29300:16:4831700:05:0514600:55:03     01:43:42 
209163 M32DANIEL EMERYALEXANDRIA VA 20200:14:0919800:03:1124301:00:4617900:01:3214800:24:29 01:44:06 
210669 M33JUSTIN KOHRSALEXANDRIA VA 24300:15:035300:01:5823201:00:225100:00:5918700:25:49 01:44:09 
211181 M51CHARLES FLETCHEROWINGS MD 13700:12:5023000:03:3325301:01:5919200:01:3613900:24:12 01:44:09 
212197 M22CHRIS GARAYCHARLOTTESVILLE VA 29800:16:5823500:03:3720200:57:3722900:01:496800:22:1100:02:0001:44:10 
213376 M59BRAD METCALFRICHMOND VA 20600:14:1217800:03:0217800:56:3623800:01:5225200:28:40 01:44:20 
214144 M46GRAEME DOUGLASWASHINGTON DC 28800:16:3525600:03:4920600:58:0529200:02:5010500:23:04 01:44:22 
215161NMM31RICHARD EILBECKWASHINGTON DC 23100:14:5116300:02:5426301:02:589900:01:108700:22:31 01:44:22 
216164CM33BENJAMIN ENGELWASHINGTON DC 9600:12:0412100:02:3226101:02:504500:00:5819900:26:09 01:44:31 
PlaceBibCoSAgeNAMECITY/STATE DQDQRankSWIMRankT1RankBIKERankT2RankRUNPENALTYTIMEDQ
21752 M28CHRISTOPHER BRACEWELLHAYMARKET VA 20900:14:1530500:04:4620300:57:4021800:01:4720600:26:25 01:44:51 
218258 M35ZACH HARVEYALEXANDRIA VA 20300:14:1019700:03:1123601:00:2714000:01:1918900:25:52 01:44:58 
219630 M40JOHN WORKMANWASHINGTON DC 30900:17:1911900:02:3221800:58:557100:01:0217800:25:22 01:45:08 
220579NMM32JEREMY THOMPSONWASHINGTON DC 24000:15:0224700:03:4523801:00:2820800:01:4214400:24:24 01:45:19 
22143NMM35TOM BINDLEYWASHINGTON DC 21300:14:1723600:03:3825601:02:2217400:01:2912000:23:38 01:45:23 
22226CM39FILIP BANOVACALEXANDRIA VA 22200:14:35         01:45:26 
223268 M35OTIS HOPSONLANHAM MD 25800:15:2123700:03:3822700:59:4423300:01:4917300:25:15 01:45:45 
224412 M43JEFF NOWAKFAIRFAX VA 18400:13:4321200:03:2224101:00:3819700:01:3820700:26:26 01:45:46 
225538 M31JEFF SIXELKRIDGE MD 13000:12:3530600:04:4723901:00:2921600:01:4620400:26:18 01:45:53 
226131 M25KYLE DENLINGERARLINGTON VA 28400:16:2716100:02:5419800:57:2911600:01:1324000:28:01 01:46:02 
227292 M32WINFREY JOHNSONTOANO VA 19200:13:5620300:03:1420800:58:1924100:01:5325600:28:55 01:46:15 
228158 M43JAY EICHBERGROCKVILLE MD 19500:13:5712600:02:3324701:01:2028900:02:4019400:26:02 01:46:30 
229375 M29TIMMOTHY MCSHANEWASHINGTON DC 16900:13:2219500:03:0922300:59:2711800:01:1426300:29:20 01:46:30 
230620NMM23TREVOR WILLETTWASHINGTON DC 23500:14:5925900:03:5124401:00:528500:01:0618600:25:48 01:46:34 
231124MCM47MARK DEANEBRANDY STATION VA 27800:16:1520400:03:1421300:58:3118300:01:3322100:27:08 01:46:38 
232261 M37GREGORY HEIDEALEXANDRIA VA 18300:13:4126300:03:5523701:00:2725900:02:1021200:26:34 01:46:45 
233460 M59DOUG POWELLFALLS CHURCH VA 21700:14:2824400:03:4217000:56:0030800:03:5125700:28:59 01:46:56 
234289 M33JASON JAWORSKIFREDERICKSBURG VA 32900:20:3126200:03:5319000:57:1119100:01:3613000:23:50 01:46:59 
235357NMM29KEVIN MARKHAMWASHINGTON DC 29400:16:5021000:03:2020900:58:1921300:01:4521700:26:55 01:47:07 
236246 M41MIKE HAMARWOODBRIDGE VA 30400:17:0917900:03:0313800:54:4119400:01:3728000:30:57 01:47:24 
237521 M37MATTHEW SCHWABELBARBOURSVILLE VA 26500:15:4023300:03:3426701:03:3019600:01:3811600:23:36 01:47:55 
238595 M38DAVID VIELBIGASHBURN VA 14900:13:0213600:02:3724601:01:1817600:01:3026600:29:32 01:47:56 
239588 M47LEON TURKEVICHALEXANDRIA VA 31900:18:446900:02:0521900:58:5715000:01:2221900:26:58 01:48:04 
240340 M26SEAN LEONARDBAKERTON WV 31700:18:3926900:04:0122900:59:4716900:01:2714100:24:13 01:48:06 
241128 M53LEO DELANEYBURKE VA 4000:10:5718800:03:0725701:02:2722600:01:4827300:30:01 01:48:18 
242604 M25DAVE WARFELRICHMOND VA 26200:15:3817200:02:5826801:03:4713700:01:1815600:24:44 01:48:23 
243667 M49BOBBY MASONRICHMOND VA 30800:17:149100:02:1818600:57:0327000:02:2126900:29:38 01:48:32 
244315 M34MATTHEW KLAPMUSTARLINGTON VA 17800:13:3327200:04:0723101:00:1217800:01:3126500:29:24 01:48:46 
245300 M29DEREK KASSEWOODBRIDGE VA 9900:12:0730100:04:4228101:04:3628600:02:3517100:25:10 01:49:08 
246171 M49RICK FAYYADROCKVILLE MD 29000:16:4618300:03:0622100:59:2023200:01:4924300:28:14 01:49:12 
247272 M68JOSEPH HULINGSBURKE VA 18500:13:4613000:02:3526201:02:5520500:01:4124600:28:20 01:49:16 
PlaceBibCoSAgeNAMECITY/STATE DQDQRankSWIMRankT1RankBIKERankT2RankRUNPENALTYTIMEDQ
248422 M39BRAD OLIVERALEXANDRIA VA 20500:14:1133500:06:3618900:57:1024400:01:5526800:29:34 01:49:24 
249493 M31SEAN ROCHEARLINGTON VA 17500:13:3126600:03:5924201:00:3816800:01:2727100:29:52 01:49:25 
250106NMM27JUSTIN COWANFALLS CHURCH VA 25400:15:1715800:02:5327901:04:332500:00:5219600:26:05 01:49:38 
251550 M27JASON SOMENSATTOARLINGTON VA 2600:10:3324300:03:4129601:07:0812500:01:1522200:27:08 01:49:43 
25256NMM32CHARLES BRISSEYKING GEORGE VA 28900:16:4522500:03:3123000:59:5618400:01:3323800:28:00 01:49:44 
253212NMM46LAWRENCE GIBBONSFREDERICKSBURG VA 20700:14:1328200:04:1223301:00:2323500:01:5126000:29:10 01:49:48 
254405 M32BRAD NESTICOWASHINGTON DC 27100:16:0221400:03:2326001:02:50     01:49:50 
255274 M63MICHAEL HUNTVIENNA VA 22100:14:3428700:04:2218300:56:5420600:01:4128800:32:27 01:49:55 
256548NMM40MATTHEW SNYDERMANASSAS VA 29500:16:5117500:03:0022500:59:4217700:01:3025800:29:01 01:50:01 
257614 M39PETE WENDTGLEN ALLEN VA 23600:15:0026100:03:5324901:01:37     01:50:02 
258333NMM50TIM LAWRIESPRINGFIELD VA 27200:16:0627900:04:1222400:59:3825400:02:0823900:28:01 01:50:03 
259291 M50SHAWN JOHNSONWOODBRIDGE VA 26900:15:5524500:03:4322600:59:4327300:02:2225100:28:37 01:50:19 
260379NMM30MICHAEL MICKWASHINGTON DC 31200:17:4632400:05:2425401:02:0126300:02:1610800:23:09 01:50:33 
261513CM37MICHAEL SCHMIDTALEXANDRIA VA 15900:13:1328000:04:1225501:02:0517100:01:2827200:29:55 01:50:50 
26231NMM36CHRISTOPHER BEASLEYALEXANDRIA VA 30200:17:05         01:51:27 
263565NMM28BRIAN SUDDARTHFAIRFAX VA 19400:13:5732500:05:3029301:06:2325200:02:0811700:23:36 01:51:33 
264619 M25OWEN WHITEHURSTWASHINGTON DC 19300:13:5722000:03:2725801:02:34     01:51:46 
265103 M33BRIAN CORCORANFREDERICKSBURG VA 13200:12:3819000:03:0824501:01:1011000:01:1329700:33:40 01:51:47 
26664CM29JEFF BROWNHYATTSVILLE MD 9700:12:0617600:03:0128901:05:3327200:02:2226400:29:22 01:52:22 
26746 M59RANDALL BOOKOUTFAIRFAX STATION VA 24200:15:0213300:02:3629501:06:4925000:02:0419100:25:54 01:52:23 
268257 M68SKIP HARTQUISTWASHINGTON DC 24800:15:1123400:03:3727001:03:5316700:01:2725000:28:34 01:52:39 
269496NMM42TIM ROHRBAUGHLINDEN VA 22900:14:4826000:03:5227401:04:0023900:01:5224800:28:27 01:52:58 
270236 M38FORT GUERINALEXANDRIA VA 3900:10:5722600:03:3129801:07:2025600:02:0927000:29:52 01:53:47 
271303 M44ALASDAIR KEITHFALLS CHURCH VA 17600:13:3121700:03:2428601:04:4312700:01:1628100:31:01 01:53:52 
27218NMM27CHETAN BAGGANEW YORK NY 100:01:5230900:04:5630801:10:0322100:01:4830200:35:24 01:54:01 
27378 M31MERRITT CASSELLCENTREVILLE VA 31100:17:4010000:02:2328001:04:3424500:01:5623000:27:33 01:54:05 
274345 M33LESTER LIUFAIRFAX VA 22500:14:4230700:04:5026901:03:5129600:02:5823400:27:53 01:54:12 
275461 M45JEFFREY PRAYHERNDON VA 24900:15:1224900:03:4623501:00:2618200:01:3329600:33:40 01:54:34 
276382MCM40MARK MILLERARLINGTON VA 30100:17:0322100:03:2921700:58:5414400:01:2029900:33:53 01:54:39 
277497NMM52CHARLES ROMEOROCKVILLE MD 27900:16:1630400:04:4625001:01:4030200:03:0825400:28:51 01:54:40 
278421 M45KEVIN OLINGERSHENANDOAH VA 30300:17:0927700:04:1026501:03:0413600:01:1826100:29:14 01:54:52 
PlaceBibCoSAgeNAMECITY/STATE DQDQRankSWIMRankT1RankBIKERankT2RankRUNPENALTYTIMEDQ
279104NMM28RYAN CORCORANFAIRFAX VA 28500:16:2829400:04:2430401:09:0727100:02:228900:22:38 01:54:57 
280456 M39KENNETH PORTERRESTON VA 28000:16:2117700:03:0125901:02:3527800:02:2327800:30:44 01:55:01 
281417CM37TIMOTHY O'CONNELLKENSINGTON MD 29600:16:5518600:03:0719300:57:2220900:01:4330400:36:02 01:55:07 
28236NMM33BRIAN BERGERCLEVELAND HTS OH 17300:13:2831300:05:0127701:04:2026000:02:1327500:30:22 01:55:21 
283228CM34TIM GRETENARLINGTON VA 9400:12:0127400:04:0828401:04:4024600:01:5729000:32:57 01:55:40 
284678 M42RANGA MUVAVARIRWAFALLS CHURCH VA 5600:11:2722300:03:3030301:09:05     01:55:48 
285576CM36SPENCER TEMPLETONVIRGINIA BEACH VA 24100:15:0230200:04:4224801:01:3623700:01:5228900:32:49 01:56:00 
286188NMM34TOM FORTUNATOALEXANDREA VA 28600:16:3031600:05:0327501:04:0529300:02:5123200:27:40 01:56:08 
28738 M19ALEXANDER BERNSTEINCHEVY CHASE MD 25000:15:1332200:05:1822800:59:4528800:02:3929500:33:36 01:56:28 
288296 M32DEVIN KALMANWASHINGTON DC 27600:16:1333000:05:5728801:04:5324700:02:0022800:27:27 01:56:29 
289307NMM34JEFF KELLEYWASHINGTON DC 25900:15:2131100:04:5929701:07:1726600:02:1821500:26:50 01:56:42 
290677 M24MAXIM DOLINSKYGLEN ALLEN VA 28100:16:2129800:04:3527601:04:1131500:05:0815200:24:3400:02:0001:56:47 
291198NMM39ALEJANDRO GARCIACENTREVILLE VA 32200:19:0428900:04:2228301:04:3926800:02:1921000:26:34 01:56:57 
292591NMM38TUCKER VANDERBUNTFALLS CHURCH VA 26000:15:2524600:03:4529101:06:0730600:03:3724100:28:08 01:57:00 
293319NMM33AJAY KODURIARLINGTON VA 15300:13:0527800:04:1131401:12:0026900:02:2020200:26:12 01:57:46 
294453 M55FERNANDO PINEDABALTIMORE MD 22600:14:4510100:02:2430001:08:00     01:57:52 
295563 M46TODD STUGARTCENTREVILLE VA 27000:15:5826800:04:0129901:07:2625300:02:0825300:28:41 01:58:11 
296207 M53PAUL GEHRINGFREDERICKSBURG VA 19100:13:5522900:03:3327301:03:58     01:58:22 
29786 M28ALEX CHISHOLMMCLEAN VA 14200:12:5630800:04:5426601:03:2724000:01:5329200:33:2100:02:0001:58:29 
29868 M36WILLIAM BURNSALEXANDRIA VA 32800:20:2817300:02:5825101:01:4327500:02:2328400:31:24 01:58:55 
299142 M61PETER DORNBUMPASS VA 24500:15:0531000:04:5927101:03:5531000:03:5828200:31:08 01:59:03 
300352 M55JAMES LYDONANNANDALE VA 32100:18:5132600:05:3327201:03:58     02:00:04 
301118NMM45TOM DANIELSTUARTS DRAFT VA 31500:18:3731900:05:0727801:04:2728000:02:2626700:29:32 02:00:08 
302492 M24MATTHEW ROCHEVIRGINIA BEACH VA 30600:17:1124000:03:4030701:09:4621000:01:4419500:26:0300:02:0002:00:21 
303233NMM26ANDREW GROSSCOLUMBIA MD 24700:15:0932900:05:5730601:09:4114800:01:2224900:28:29 02:00:35 
304569NMM32JOHN TABERSKIALEXANDRIA VA 32000:18:4825000:03:4729201:06:23     02:01:06 
305502 M22ANTHONY RUIZGAITHERSBURG MD 29100:16:4621500:03:2331601:13:2624200:01:5418400:25:43 02:01:10 
306374NMM42JOHN MCLEESSANDSTON VA 32500:19:4931800:05:0529401:06:4428200:02:3123600:27:54 02:02:02 
307320NMM30HARAJESHWAR KOHLINEW YORK NY 33200:22:0327100:04:0430501:09:15     02:03:06 
308423NMM30DEREK O'MARAALEXANDRIA VA 9800:12:0715900:02:5332001:14:172200:00:5130000:33:56 02:04:03 
309632 M49EDWIN WRIGHT JR.MONTCLAIR VA 26600:15:4427000:04:0231001:11:0130100:03:0827600:30:38 02:04:31 
PlaceBibCoSAgeNAMECITY/STATE DQDQRankSWIMRankT1RankBIKERankT2RankRUNPENALTYTIMEDQ
310606NMM34JON WATTSARLINGTON VA 31000:17:3133200:06:0831301:11:4113400:01:1724200:28:13 02:04:50 
311224 M27BENJAMIN GREENWASHINGTON DC 5400:11:2525500:03:4932401:15:2522700:01:4929300:33:23 02:05:48 
312348 M51JOHN LOWEWASHINGTON DC 33800:26:3333300:06:2521100:58:2530900:03:5127900:30:55 02:06:07 
313425 M39MICHAEL ORONAALEXANDRIA VA 31300:17:4629300:04:2431101:11:0322500:01:4828500:31:27 02:06:26 
314540 M28DAN SMITHALEXANDRIA VA 12500:12:3130300:04:4331801:13:5924800:02:0129400:33:34 02:06:46 
315168 M36JOHN FACCIOLAWOODBRIDGE VA            02:07:06 
316120CM38TRAVIS DAVIDSONNORFOLK VA 25600:15:1828800:04:2231701:13:3029500:02:5628600:31:38 02:07:43 
317629 M70DALLAS WOLFETHE PLAINS VA 23800:15:0132000:05:1329001:05:5830300:03:2330700:38:47 02:08:21 
318230NMM36DANIEL GRIFFITHRESTON VA 33400:23:3229000:04:2328201:04:3731100:04:0128700:31:58 02:08:28 
319365 M52GROVER MCCALLARLINGTON VA 29700:16:5529700:04:2730901:10:0429100:02:4630300:35:29 02:09:39 
3202MCM41JEFF ADAMSMARTINSBURG WV 23200:14:5223100:03:3333001:20:3719900:01:3925900:29:06 02:09:45 
321586CM38CHRIS TOWLEBALTIMORE MD 27300:16:1231500:05:0328701:04:4931400:04:3230800:40:59 02:11:32 
322467 M31DARIN PUGHSILVER SPRING MD 30500:17:0926400:03:5833201:21:3513800:01:1923100:27:39 02:11:37 
32392NMM35WILLIAM CLAYTONALEXANDRIA VA 32400:19:2433700:08:4031901:14:1513100:01:1724500:28:20 02:11:54 
324592NMM39ALEX VARGAFREDERICKSBURG VA 28300:16:2625400:03:4931201:11:0430400:03:2730600:38:00 02:12:44 
325501NMM49KEVIN ROUSSEAUFAIRFAX VA 33600:25:3432300:05:2230201:08:4931200:04:0925500:28:52 02:12:44 
326159 M42EDWARD EICHERGLEN BURNIE MD 33900:27:0632700:05:4630101:08:3529900:03:0127400:30:13 02:14:38 
327562 M24JAMES STRICKLANDGOLDVEIN VA 31600:18:3725100:03:4732701:18:1319800:01:3929100:33:09 02:15:23 
328218 M66BILL GOODINGMONTCLAIR VA 32600:20:1630000:04:4232101:14:3228400:02:3429800:33:47 02:15:48 
329491 M41TODD ROBSONCULPEPER VA 34000:27:1821100:03:2131501:12:0225800:02:0927700:30:4200:02:0002:17:30 
330505 M70ROBERT RYLANDRICHMOND VA 33100:21:4928100:04:1232301:15:1629800:03:0030100:34:58 02:19:14 
331609 M63JOHN WEBBDOVER DE 32300:19:1931400:05:0332601:17:4827400:02:2330500:36:15 02:20:45 
332234MCM52STEVEN GROSSROCKVILLE MD 27700:16:1429600:04:2632201:15:1229400:02:5231200:43:39 02:22:21 
333564CM21BENJAMIN SUAREZELLICOTT CITY MD 31400:17:4728500:04:2032501:17:4628700:02:3731000:42:37 02:25:05 
3345NMM41SCOTT ADAMSSPRINGFIELD VA 31800:18:4032100:05:1432801:19:4028100:02:2931100:42:38 02:28:40 
33534CM29CHRIS BEEMERWOODBRIDGE VA 26400:15:3932800:05:51200:42:5328500:02:3531501:28:13 02:35:10 
336214 M38BRIAN GILLCENTREVILLE MD 33700:25:4033400:06:3333101:21:2931300:04:2130900:41:01 02:39:02 
337297 M35DAVE KAPLANARLINGTON VA 33000:21:3133100:06:0033501:41:4030500:03:2828300:31:12 02:43:50 
33885NMM44JULIAN CHESNUTTWASHINGTON DC 33300:23:3133600:07:5733301:22:2830700:03:4531300:46:38 02:44:17 
339290 M47JAMES JOHNSONALEXANDRIA VA 34100:28:4029900:04:3532901:20:0029700:02:5931400:50:31 02:46:43 
340518 M30MATTHEW SCHULZMANASSAS VA 32700:20:2431200:05:0133401:36:52     02:51:15 
PlaceBibCoSAgeNAMECITY/STATE DQDQRankSWIMRankT1RankBIKERankT2RankRUNPENALTYTIMEDQ
341122 M39DAVID DEAL 1230WASHINGTON DC 19700:14:0316000:02:53         
342466CM39TOM PUETZARLINGTON VA 33500:23:3328300:04:13         

** Results are for the private use of participants and are the Intellectual Property of Set Up Events. Unauthorized use of these results is prohibited.